createdAt,value
2023-04-06T00:01:26.712Z,11.63
2023-04-06T00:03:54.361Z,11.60
2023-04-06T00:06:21.976Z,10.03
2023-04-06T00:08:49.591Z,14.87
2023-04-06T00:11:17.097Z,12.57
2023-04-06T00:13:45.152Z,11.63
2023-04-06T00:16:12.710Z,13.53
2023-04-06T00:18:41.752Z,12.07
2023-04-06T00:21:09.285Z,16.60
2023-04-06T00:23:36.916Z,13.30
2023-04-06T00:26:04.447Z,12.60
2023-04-06T00:28:32.042Z,12.63
2023-04-06T00:30:59.647Z,12.63
2023-04-06T00:33:27.333Z,13.67
2023-04-06T00:35:54.941Z,13.70
2023-04-06T00:38:23.371Z,13.60
2023-04-06T00:40:51.476Z,11.87
2023-04-06T00:43:19.265Z,11.40
2023-04-06T00:45:46.890Z,14.80
2023-04-06T00:48:14.481Z,12.00
2023-04-06T00:50:42.084Z,8.77
2023-04-06T00:53:09.693Z,12.57
2023-04-06T00:55:37.250Z,12.20
2023-04-06T00:58:04.918Z,11.80
2023-04-06T01:00:33.252Z,12.87
2023-04-06T01:03:00.938Z,14.53
2023-04-06T01:05:28.562Z,11.50
2023-04-06T01:07:56.218Z,12.87
2023-04-06T01:10:24.509Z,15.03
2023-04-06T01:12:52.132Z,14.73
2023-04-06T01:15:19.967Z,14.43
2023-04-06T01:17:47.633Z,12.13
2023-04-06T01:20:15.577Z,14.53
2023-04-06T01:22:43.225Z,12.57
2023-04-06T01:25:11.202Z,13.00
2023-04-06T01:27:38.879Z,13.80
2023-04-06T01:30:06.769Z,12.97
2023-04-06T01:32:34.516Z,15.63
2023-04-06T01:35:02.195Z,12.90
2023-04-06T01:37:29.860Z,13.60
2023-04-06T01:39:57.376Z,15.73
2023-04-06T01:42:24.977Z,13.13
2023-04-06T01:44:52.505Z,14.37
2023-04-06T01:47:20.143Z,17.33
2023-04-06T01:49:47.774Z,14.23
2023-04-06T01:52:15.342Z,13.27
2023-04-06T01:54:42.872Z,15.23
2023-04-06T01:57:11.867Z,16.60
2023-04-06T01:59:39.490Z,16.80
2023-04-06T02:02:07.310Z,12.07
2023-04-06T02:04:34.901Z,15.40
2023-04-06T02:07:02.468Z,14.10
2023-04-06T02:09:29.943Z,17.43
2023-04-06T02:11:57.579Z,16.43
2023-04-06T02:14:27.166Z,14.73
2023-04-06T02:16:55.027Z,16.70
2023-04-06T02:19:22.660Z,14.87
2023-04-06T02:21:50.256Z,15.53
2023-04-06T02:24:17.791Z,15.17
2023-04-06T02:26:45.396Z,15.97
2023-04-06T02:29:12.983Z,16.50
2023-04-06T02:31:40.850Z,16.70
2023-04-06T02:34:08.438Z,19.57
2023-04-06T02:36:36.012Z,16.67
2023-04-06T02:39:03.565Z,15.63
2023-04-06T02:41:31.146Z,16.13
2023-04-06T02:43:58.718Z,20.10
2023-04-06T02:46:26.453Z,17.63
2023-04-06T02:48:54.143Z,18.10
2023-04-06T02:51:21.735Z,16.30
2023-04-06T02:53:49.268Z,21.10
2023-04-06T02:56:16.932Z,17.03
2023-04-06T02:58:44.568Z,18.30
2023-04-06T03:01:12.298Z,19.60
2023-04-06T03:03:40.028Z,22.20
2023-04-06T03:06:07.842Z,20.80
2023-04-06T03:08:35.426Z,16.97
2023-04-06T03:11:03.040Z,18.13
2023-04-06T03:13:30.624Z,16.43
2023-04-06T03:15:58.234Z,16.10
2023-04-06T03:18:26.513Z,18.10
2023-04-06T03:20:54.277Z,17.60
2023-04-06T03:23:21.960Z,18.97
2023-04-06T03:25:49.541Z,19.33
2023-04-06T03:28:17.127Z,16.83
2023-04-06T03:30:44.818Z,19.97
2023-04-06T03:33:12.384Z,21.07
2023-04-06T03:35:40.113Z,22.00
2023-04-06T03:38:07.680Z,19.90
2023-04-06T03:40:35.252Z,25.67
2023-04-06T03:43:03.427Z,24.07
2023-04-06T03:45:31.057Z,22.73
2023-04-06T03:47:58.696Z,24.40
2023-04-06T03:50:26.630Z,23.33
2023-04-06T03:52:54.200Z,26.27
2023-04-06T03:55:21.743Z,23.37
2023-04-06T03:57:49.334Z,24.97
2023-04-06T04:00:17.093Z,24.87
2023-04-06T04:02:44.732Z,21.93
2023-04-06T04:05:12.409Z,24.00
2023-04-06T04:07:40.019Z,22.20
2023-04-06T04:10:07.935Z,20.23
2023-04-06T04:12:35.490Z,21.57
2023-04-06T04:15:03.150Z,27.00
2023-04-06T04:17:30.807Z,30.13
2023-04-06T04:19:58.476Z,27.97
2023-04-06T04:22:26.000Z,26.90
2023-04-06T04:24:53.601Z,26.43
2023-04-06T04:27:21.422Z,22.93
2023-04-06T04:29:49.018Z,29.83
2023-04-06T04:32:16.627Z,29.60
2023-04-06T04:34:44.288Z,24.87
2023-04-06T04:37:11.865Z,25.67
2023-04-06T04:39:39.445Z,24.67
2023-04-06T04:42:07.049Z,28.40
2023-04-06T04:44:34.696Z,27.93
2023-04-06T04:47:02.214Z,26.33
2023-04-06T04:49:29.807Z,26.07
2023-04-06T04:51:57.406Z,26.07
2023-04-06T04:54:25.021Z,30.20
2023-04-06T04:56:52.656Z,19.50
2023-04-06T04:59:20.312Z,19.93
2023-04-06T05:01:55.010Z,23.13
2023-04-06T05:04:23.804Z,18.33
2023-04-06T05:06:51.335Z,20.20
2023-04-06T05:09:18.914Z,17.13
2023-04-06T05:11:46.655Z,19.37
2023-04-06T05:14:14.246Z,18.80
2023-04-06T05:16:41.785Z,16.30
2023-04-06T05:19:09.692Z,17.60
2023-04-06T05:21:37.414Z,17.00
2023-04-06T05:24:05.072Z,17.97
2023-04-06T05:26:32.644Z,21.47
2023-04-06T05:29:00.256Z,16.77
2023-04-06T05:31:29.294Z,16.07
2023-04-06T05:33:57.180Z,18.70
2023-04-06T05:36:24.736Z,16.77
2023-04-06T05:38:52.484Z,12.53
2023-04-06T05:41:20.135Z,18.37
2023-04-06T05:43:47.733Z,16.57
2023-04-06T05:46:15.264Z,15.73
2023-04-06T05:48:42.883Z,17.20
2023-04-06T05:51:10.464Z,13.00
2023-04-06T05:53:38.092Z,19.10
2023-04-06T05:56:06.266Z,17.57
2023-04-06T05:58:33.913Z,15.73
2023-04-06T06:01:02.162Z,17.07
2023-04-06T06:03:30.001Z,18.37
2023-04-06T06:06:05.333Z,20.50
2023-04-06T06:08:33.392Z,13.20
2023-04-06T06:11:00.973Z,15.03
2023-04-06T06:13:31.309Z,24.20
2023-04-06T06:15:59.230Z,18.77
2023-04-06T06:18:26.897Z,15.60
2023-04-06T06:20:54.509Z,16.17
2023-04-06T06:23:22.054Z,18.37
2023-04-06T06:25:52.682Z,18.33
2023-04-06T06:28:20.315Z,14.90
2023-04-06T06:30:47.912Z,18.50
2023-04-06T06:33:15.579Z,17.03
2023-04-06T06:35:43.190Z,20.77
2023-04-06T06:38:10.836Z,19.00
2023-04-06T06:40:38.489Z,14.37
2023-04-06T06:43:06.118Z,14.68
2023-04-06T06:45:33.662Z,19.87
2023-04-06T06:48:01.419Z,13.77
2023-04-06T06:50:29.095Z,14.80
2023-04-06T06:52:56.736Z,16.10
2023-04-06T06:55:24.329Z,13.03
2023-04-06T06:57:51.984Z,15.97
2023-04-06T07:00:19.654Z,16.50
2023-04-06T07:02:47.312Z,17.87
2023-04-06T07:05:26.662Z,18.07
2023-04-06T07:07:56.366Z,15.73
2023-04-06T07:10:24.109Z,16.63
2023-04-06T07:12:51.718Z,15.40
2023-04-06T07:15:19.325Z,16.07
2023-04-06T07:17:47.068Z,13.70
2023-04-06T07:20:15.345Z,17.00
2023-04-06T07:22:44.739Z,18.07
2023-04-06T07:25:12.320Z,21.75
2023-04-06T07:27:40.638Z,17.67
2023-04-06T07:30:08.612Z,12.57
2023-04-06T07:32:36.366Z,16.63
2023-04-06T07:35:05.473Z,19.17
2023-04-06T07:37:33.102Z,16.17
2023-04-06T07:40:00.643Z,20.37
2023-04-06T07:42:28.316Z,14.20
2023-04-06T07:44:55.856Z,15.73
2023-04-06T07:47:23.523Z,18.87
2023-04-06T07:49:51.168Z,17.43
2023-04-06T07:52:18.823Z,17.93
2023-04-06T07:54:46.358Z,15.90
2023-04-06T07:57:13.960Z,21.20
2023-04-06T07:59:41.674Z,16.20
2023-04-06T08:02:09.340Z,13.27
2023-04-06T08:04:37.311Z,18.60
2023-04-06T08:07:04.984Z,19.50
2023-04-06T08:09:32.683Z,16.37
2023-04-06T08:12:00.330Z,17.20
2023-04-06T08:14:27.984Z,14.83
2023-04-06T08:16:55.722Z,19.03
2023-04-06T08:19:23.379Z,16.63
2023-04-06T08:21:51.038Z,14.50
2023-04-06T08:24:18.651Z,16.53
2023-04-06T08:26:46.266Z,17.17
2023-04-06T08:29:13.874Z,19.87
2023-04-06T08:31:41.671Z,16.87
2023-04-06T08:34:10.908Z,15.03
2023-04-06T08:36:40.920Z,17.63
2023-04-06T08:39:08.609Z,14.10
2023-04-06T08:41:36.286Z,14.50
2023-04-06T08:44:04.298Z,13.27
2023-04-06T08:46:32.344Z,16.33
2023-04-06T08:49:00.842Z,12.50
2023-04-06T08:51:29.312Z,13.40
2023-04-06T08:53:57.761Z,14.70
2023-04-06T08:56:26.130Z,16.60
2023-04-06T08:58:55.803Z,14.20
2023-04-06T09:01:28.105Z,15.50
2023-04-06T09:03:59.590Z,16.33
2023-04-06T09:06:28.224Z,17.03
2023-04-06T09:08:55.953Z,15.67
2023-04-06T09:11:23.741Z,14.33
2023-04-06T09:13:57.825Z,13.97
2023-04-06T09:16:25.601Z,20.33
2023-04-06T09:18:53.285Z,17.33
2023-04-06T09:21:24.473Z,15.67
2023-04-06T09:24:02.400Z,15.17
2023-04-06T09:26:30.139Z,15.97
2023-04-06T09:28:58.758Z,16.87
2023-04-06T09:31:27.406Z,19.00
2023-04-06T09:33:55.500Z,17.60
2023-04-06T09:36:32.968Z,15.43
2023-04-06T09:39:01.494Z,18.67
2023-04-06T09:41:30.087Z,15.83
2023-04-06T09:44:07.798Z,16.10
2023-04-06T09:46:57.639Z,17.30
2023-04-06T09:49:29.427Z,20.07
2023-04-06T09:52:15.920Z,17.73
2023-04-06T09:54:44.483Z,17.80
2023-04-06T09:57:26.659Z,16.90
2023-04-06T09:59:59.704Z,17.63
2023-04-06T10:02:33.927Z,14.90
2023-04-06T10:05:04.404Z,22.00
2023-04-06T10:07:32.645Z,17.50
2023-04-06T10:10:00.801Z,17.07
2023-04-06T10:12:28.620Z,16.03
2023-04-06T10:14:56.551Z,17.40
2023-04-06T10:17:24.166Z,20.47
2023-04-06T10:19:55.639Z,20.20
2023-04-06T10:22:28.256Z,19.53
2023-04-06T10:24:55.856Z,18.23
2023-04-06T10:27:30.190Z,17.03
2023-04-06T10:30:02.797Z,19.00
2023-04-06T10:32:40.516Z,18.73
2023-04-06T10:35:11.944Z,18.97
2023-04-06T10:38:06.057Z,17.63
2023-04-06T10:40:33.665Z,19.63
2023-04-06T10:43:10.405Z,20.63
2023-04-06T10:45:38.313Z,20.77
2023-04-06T10:48:18.879Z,17.53
2023-04-06T10:50:48.771Z,21.13
2023-04-06T10:53:34.876Z,20.80
2023-04-06T10:56:02.576Z,18.27
2023-04-06T10:58:30.285Z,22.97
2023-04-06T11:00:57.952Z,20.30
2023-04-06T11:03:25.648Z,25.03
2023-04-06T11:05:53.276Z,19.07
2023-04-06T11:08:46.870Z,19.67
2023-04-06T11:11:16.526Z,17.93
2023-04-06T11:13:45.620Z,18.53
2023-04-06T11:16:19.174Z,21.85
2023-04-06T11:18:49.917Z,22.90
2023-04-06T11:21:17.681Z,19.93
2023-04-06T11:23:45.290Z,17.53
2023-04-06T11:26:15.438Z,17.83
2023-04-06T11:28:43.293Z,17.43
2023-04-06T11:31:11.629Z,18.77
2023-04-06T11:33:39.829Z,17.57
2023-04-06T11:36:07.843Z,17.60
2023-04-06T11:38:35.839Z,17.93
2023-04-06T11:41:03.497Z,17.90
2023-04-06T11:43:31.674Z,17.37
2023-04-06T11:46:03.158Z,18.70
2023-04-06T11:48:31.462Z,19.10
2023-04-06T11:51:03.085Z,20.87
2023-04-06T11:53:30.886Z,19.90
2023-04-06T11:55:58.561Z,20.93
2023-04-06T11:58:26.191Z,19.67
2023-04-06T12:00:53.813Z,17.87
2023-04-06T12:03:21.557Z,18.30
2023-04-06T12:05:49.332Z,20.87
2023-04-06T12:08:16.939Z,18.87
2023-04-06T12:10:44.470Z,13.70
2023-04-06T12:13:12.077Z,11.93
2023-04-06T12:15:39.598Z,9.43
2023-04-06T12:18:07.257Z,13.97
2023-04-06T12:20:34.925Z,12.60
2023-04-06T12:23:02.538Z,12.97
2023-04-06T12:25:31.134Z,11.67
2023-04-06T12:27:59.422Z,10.50
2023-04-06T12:30:27.040Z,8.90
2023-04-06T12:32:54.778Z,9.87
2023-04-06T12:35:22.416Z,10.53
2023-04-06T12:37:50.142Z,5.77
2023-04-06T12:40:17.747Z,9.10
2023-04-06T12:42:45.369Z,10.00
2023-04-06T12:45:13.022Z,14.40
2023-04-06T12:47:40.799Z,7.70
2023-04-06T12:50:08.603Z,7.90
2023-04-06T12:52:36.227Z,6.27
2023-04-06T12:55:06.893Z,6.63
2023-04-06T12:57:34.476Z,9.30
2023-04-06T13:00:02.168Z,7.93
2023-04-06T13:02:30.049Z,7.23
2023-04-06T13:04:57.621Z,8.00
2023-04-06T13:07:25.244Z,9.33
2023-04-06T13:09:53.222Z,9.97
2023-04-06T13:12:20.934Z,10.73
2023-04-06T13:14:48.617Z,7.80
2023-04-06T13:17:16.225Z,12.53
2023-04-06T13:19:43.854Z,10.43
2023-04-06T13:22:11.467Z,9.50
2023-04-06T13:24:38.997Z,9.60
2023-04-06T13:27:06.627Z,10.10
2023-04-06T13:29:34.180Z,7.57
2023-04-06T13:32:01.862Z,8.10
2023-04-06T13:34:29.467Z,12.23
2023-04-06T13:36:57.073Z,9.90
2023-04-06T13:39:24.693Z,8.70
2023-04-06T13:41:52.399Z,9.00
2023-04-06T13:44:19.960Z,9.93
2023-04-06T13:46:47.655Z,9.13
2023-04-06T13:49:15.570Z,9.60
2023-04-06T13:51:43.223Z,9.47
2023-04-06T13:54:10.959Z,11.73
2023-04-06T13:56:38.545Z,11.13
2023-04-06T13:59:06.069Z,9.77
2023-04-06T14:01:33.905Z,9.00
2023-04-06T14:04:01.570Z,8.80
2023-04-06T14:06:31.826Z,10.23
2023-04-06T14:09:00.391Z,7.77
2023-04-06T14:11:28.161Z,8.90
2023-04-06T14:13:57.973Z,10.33
2023-04-06T14:16:26.196Z,11.03
2023-04-06T14:18:53.826Z,8.73
2023-04-06T14:21:21.395Z,9.47
2023-04-06T14:23:48.925Z,10.10
2023-04-06T14:26:16.522Z,11.00
2023-04-06T14:28:44.172Z,10.73
2023-04-06T14:31:12.519Z,10.50
2023-04-06T14:33:40.457Z,13.50
2023-04-06T14:36:08.521Z,11.27
2023-04-06T14:38:36.349Z,9.63
2023-04-06T14:41:03.964Z,12.87
2023-04-06T14:43:34.628Z,12.83
2023-04-06T14:46:03.066Z,8.67
2023-04-06T14:48:30.746Z,12.30
2023-04-06T14:50:58.958Z,11.60
2023-04-06T14:53:26.687Z,13.07
2023-04-06T14:55:54.500Z,12.40
2023-04-06T14:58:22.479Z,13.10
2023-04-06T15:00:50.331Z,9.13
2023-04-06T15:03:18.022Z,12.23
2023-04-06T15:05:45.744Z,11.97
2023-04-06T15:08:13.246Z,11.57
2023-04-06T15:10:40.817Z,11.97
2023-04-06T15:13:08.324Z,11.40
2023-04-06T15:15:35.976Z,10.07
2023-04-06T15:18:03.632Z,10.83
2023-04-06T15:20:31.644Z,12.70
2023-04-06T15:22:59.234Z,10.83
2023-04-06T15:25:26.967Z,11.93
2023-04-06T15:27:55.452Z,11.50
2023-04-06T15:30:23.393Z,11.40
2023-04-06T15:32:56.622Z,9.20
2023-04-06T15:35:24.387Z,12.07
2023-04-06T15:37:51.919Z,9.40
2023-04-06T15:40:19.549Z,9.90
2023-04-06T15:42:47.089Z,11.77
2023-04-06T15:45:14.860Z,11.47
2023-04-06T15:47:43.079Z,11.97
2023-04-06T15:50:11.156Z,14.37
2023-04-06T15:52:39.331Z,13.57
2023-04-06T15:55:08.001Z,11.17
2023-04-06T15:57:35.615Z,13.63
2023-04-06T16:00:03.531Z,13.20
2023-04-06T16:02:31.151Z,12.50
2023-04-06T16:04:59.437Z,10.07
2023-04-06T16:07:27.023Z,11.37
2023-04-06T16:09:54.698Z,11.77
2023-04-06T16:12:22.362Z,10.83
2023-04-06T16:14:49.924Z,10.90
2023-04-06T16:17:17.455Z,14.63
2023-04-06T16:19:45.085Z,9.17
2023-04-06T16:22:12.632Z,12.53
2023-04-06T16:24:40.213Z,13.33
2023-04-06T16:27:07.727Z,14.47
2023-04-06T16:29:35.901Z,12.30
2023-04-06T16:32:04.249Z,13.77
2023-04-06T16:34:35.106Z,15.17
2023-04-06T16:37:02.873Z,11.77
2023-04-06T16:39:30.425Z,15.13
2023-04-06T16:41:58.060Z,16.40
2023-04-06T16:44:25.523Z,14.17
2023-04-06T16:46:53.382Z,13.80
2023-04-06T16:49:20.920Z,16.07
2023-04-06T16:51:48.546Z,14.67
2023-04-06T16:54:16.533Z,15.50
2023-04-06T16:56:44.143Z,15.50
2023-04-06T16:59:11.794Z,15.20
2023-04-06T17:01:39.608Z,17.07
2023-04-06T17:04:07.414Z,14.97
2023-04-06T17:06:35.141Z,16.43
2023-04-06T17:09:02.850Z,15.77
2023-04-06T17:11:45.694Z,15.37
2023-04-06T17:14:14.615Z,17.17
2023-04-06T17:16:42.238Z,15.03
2023-04-06T17:19:09.837Z,16.03
2023-04-06T17:21:37.354Z,14.53
2023-04-06T17:24:05.005Z,14.27
2023-04-06T17:26:32.502Z,17.20
2023-04-06T17:29:00.112Z,17.53
2023-04-06T17:31:27.630Z,18.07
2023-04-06T17:33:55.155Z,17.60
2023-04-06T17:36:22.755Z,14.63
2023-04-06T17:38:50.450Z,15.97
2023-04-06T17:41:17.998Z,16.07
2023-04-06T17:43:45.779Z,16.63
2023-04-06T17:46:13.628Z,16.17
2023-04-06T17:48:41.300Z,17.63
2023-04-06T17:51:08.825Z,17.83
2023-04-06T17:53:36.515Z,17.47
2023-04-06T17:56:04.372Z,18.97
2023-04-06T17:58:32.060Z,17.87
2023-04-06T18:00:59.631Z,14.50
2023-04-06T18:03:27.446Z,18.63
2023-04-06T18:05:55.078Z,14.53
2023-04-06T18:08:22.756Z,17.70
2023-04-06T18:10:50.308Z,17.70
2023-04-06T18:13:17.875Z,16.23
2023-04-06T18:15:45.417Z,15.03
2023-04-06T18:18:13.014Z,17.20
2023-04-06T18:20:41.120Z,15.30
2023-04-06T18:23:08.764Z,15.37
2023-04-06T18:25:42.616Z,15.37
2023-04-06T18:28:10.243Z,16.17
2023-04-06T18:30:37.752Z,13.67
2023-04-06T18:33:05.820Z,17.23
2023-04-06T18:35:33.432Z,18.33
2023-04-06T18:38:01.236Z,15.53
2023-04-06T18:40:32.752Z,16.30
2023-04-06T18:43:00.450Z,19.73
2023-04-06T18:45:28.021Z,15.07
2023-04-06T18:47:56.864Z,16.83
2023-04-06T18:50:24.374Z,18.27
2023-04-06T18:52:52.471Z,16.13
2023-04-06T18:55:20.402Z,14.47
2023-04-06T18:57:50.761Z,17.67
2023-04-06T19:00:18.466Z,14.63
2023-04-06T19:02:46.441Z,18.03
2023-04-06T19:05:14.379Z,17.67
2023-04-06T19:07:41.961Z,20.27
2023-04-06T19:10:10.152Z,17.73
2023-04-06T19:12:38.950Z,16.00
2023-04-06T19:15:08.423Z,17.47
2023-04-06T19:17:36.100Z,14.87
2023-04-06T19:20:03.752Z,16.70
2023-04-06T19:22:31.263Z,16.57
2023-04-06T19:24:58.881Z,15.87
2023-04-06T19:27:26.382Z,16.40
2023-04-06T19:29:53.933Z,17.43
2023-04-06T19:32:21.498Z,16.17
2023-04-06T19:34:49.208Z,16.70
2023-04-06T19:37:16.809Z,16.97
2023-04-06T19:39:44.379Z,16.60
2023-04-06T19:42:12.106Z,16.17
2023-04-06T19:44:39.629Z,17.60
2023-04-06T19:47:07.225Z,16.90
2023-04-06T19:49:34.901Z,16.83
2023-04-06T19:52:02.439Z,18.80
2023-04-06T19:54:30.724Z,17.50
2023-04-06T19:56:58.769Z,17.13
2023-04-06T19:59:26.464Z,17.57
2023-04-06T20:01:54.164Z,16.23
2023-04-06T20:04:22.226Z,15.07
2023-04-06T20:06:49.893Z,17.20
2023-04-06T20:09:17.458Z,15.23
2023-04-06T20:11:45.139Z,12.67
2023-04-06T20:14:12.744Z,12.23
2023-04-06T20:16:40.319Z,12.20
2023-04-06T20:19:07.883Z,13.40
2023-04-06T20:21:36.812Z,13.90
2023-04-06T20:24:05.502Z,14.67
2023-04-06T20:26:33.023Z,13.90
2023-04-06T20:29:00.760Z,12.90
2023-04-06T20:31:28.769Z,12.00
2023-04-06T20:33:56.491Z,12.53
2023-04-06T20:36:24.806Z,11.17
2023-04-06T20:38:52.485Z,14.00
2023-04-06T20:41:20.013Z,11.30
2023-04-06T20:43:47.618Z,12.17
2023-04-06T20:46:16.121Z,11.73
2023-04-06T20:48:44.224Z,9.70
2023-04-06T20:51:18.092Z,10.80
2023-04-06T20:53:45.784Z,11.73
2023-04-06T20:56:13.747Z,10.57
2023-04-06T20:58:41.326Z,11.53
2023-04-06T21:01:12.514Z,9.53
2023-04-06T21:03:40.452Z,8.77
2023-04-06T21:06:08.181Z,8.73
2023-04-06T21:08:36.003Z,12.20
2023-04-06T21:11:15.633Z,12.10
2023-04-06T21:13:52.383Z,11.00
2023-04-06T21:16:20.050Z,11.67
2023-04-06T21:18:47.586Z,11.10
2023-04-06T21:21:15.242Z,9.97
2023-04-06T21:23:42.780Z,9.20
2023-04-06T21:26:12.779Z,10.30
2023-04-06T21:28:40.440Z,11.97
2023-04-06T21:31:08.231Z,11.30
2023-04-06T21:33:35.975Z,10.13
2023-04-06T21:36:09.639Z,10.93
2023-04-06T21:38:37.302Z,11.80
2023-04-06T21:41:04.873Z,13.97
2023-04-06T21:43:32.732Z,10.77
2023-04-06T21:46:00.379Z,12.00
2023-04-06T21:48:27.949Z,11.60
2023-04-06T21:50:55.462Z,12.23
2023-04-06T21:53:23.091Z,10.10
2023-04-06T21:55:50.765Z,9.47
2023-04-06T21:58:18.336Z,11.63
2023-04-06T22:00:45.992Z,11.53
2023-04-06T22:03:13.865Z,12.93
2023-04-06T22:05:41.540Z,13.43
2023-04-06T22:08:15.097Z,11.47
2023-04-06T22:10:45.417Z,12.33
2023-04-06T22:13:13.165Z,10.93
2023-04-06T22:15:40.774Z,11.40
2023-04-06T22:18:08.494Z,13.73
2023-04-06T22:20:36.102Z,11.83
2023-04-06T22:23:03.683Z,10.90
2023-04-06T22:25:32.045Z,13.03
2023-04-06T22:27:59.542Z,10.27
2023-04-06T22:30:27.144Z,11.87
2023-04-06T22:32:54.692Z,13.27
2023-04-06T22:35:22.299Z,9.97
2023-04-06T22:37:49.851Z,11.13
2023-04-06T22:40:17.471Z,11.73
2023-04-06T22:42:44.998Z,12.43
2023-04-06T22:45:12.604Z,12.63
2023-04-06T22:47:40.250Z,13.07
2023-04-06T22:50:08.708Z,14.07
2023-04-06T22:52:36.330Z,12.03
2023-04-06T22:55:03.979Z,13.30
2023-04-06T22:57:31.477Z,12.40
2023-04-06T22:59:59.044Z,12.37
2023-04-06T23:02:26.775Z,14.17
2023-04-06T23:04:54.374Z,15.20
2023-04-06T23:07:21.903Z,14.30
2023-04-06T23:09:49.477Z,12.60
2023-04-06T23:12:16.975Z,14.10
2023-04-06T23:14:44.550Z,12.97
2023-04-06T23:17:12.099Z,14.90
2023-04-06T23:19:39.684Z,16.70
2023-04-06T23:22:07.216Z,17.20
2023-04-06T23:24:34.965Z,14.47
2023-04-06T23:27:02.466Z,14.47
2023-04-06T23:29:30.067Z,14.83
2023-04-06T23:31:57.694Z,20.60
2023-04-06T23:34:25.376Z,17.30
2023-04-06T23:36:52.923Z,17.17
2023-04-06T23:39:20.599Z,18.93
2023-04-06T23:41:48.107Z,17.43
2023-04-06T23:44:15.700Z,19.57
2023-04-06T23:46:43.271Z,15.17
2023-04-06T23:49:10.911Z,15.63
2023-04-06T23:51:38.531Z,18.17
2023-04-06T23:54:06.155Z,17.90
2023-04-06T23:56:33.719Z,17.00
2023-04-06T23:59:01.277Z,19.03
